Observation data for Silverton on 05/24/2020      Previous  Date  Next       Current Mesonet Observations  Soil Data  Daily Summary Page  Observations in Plain Language
KSVS 240500Z 15014KT 18/11 A2983 RMK A01 T01800113  RH  067%=      5-min Rain = 0
KSVS 240505Z 15012KT 18/11 A2982 RMK A01 T01810113  RH  067%=      5-min Rain = 0
KSVS 240510Z 15013KT 18/11 A2982 RMK A01 T01800113  RH  067%=      5-min Rain = 0
KSVS 240515Z 14011KT 18/11 A2982 RMK A01 T01780113  RH  068%=      5-min Rain = 0
KSVS 240520Z 16012KT 18/11 A2983 RMK A01 T01790111  RH  067%=      5-min Rain = 0
KSVS 240525Z 15011KT 18/11 A2983 RMK A01 T01800111  RH  066%=      5-min Rain = 0
KSVS 240530Z 16010KT 18/11 A2983 RMK A01 T01810109  RH  065%=      5-min Rain = 0
KSVS 240535Z 15010KT 18/11 A2983 RMK A01 T01810110  RH  065%=      5-min Rain = 0
KSVS 240540Z 15009KT 18/11 A2983 RMK A01 T01780110  RH  067%=      5-min Rain = 0
KSVS 240545Z 16008KT 18/11 A2983 RMK A01 T01780109  RH  066%=      5-min Rain = 0
KSVS 240550Z 15008KT 18/11 A2983 RMK A01 T01790109  RH  066%=      5-min Rain = 0
KSVS 240555Z 16008KT 18/11 A2983 RMK A01 T01800108  RH  065%=      5-min Rain = 0
KSVS 240600Z 16008KT 18/11 A2983 RMK A01 T01790109  RH  066%=      5-min Rain = 0
KSVS 240605Z 16008KT 18/11 A2983 RMK A01 T01790108  RH  066%=      5-min Rain = 0
KSVS 240610Z 16008KT 18/11 A2983 RMK A01 T01790108  RH  065%=      5-min Rain = 0
KSVS 240615Z 15007KT 18/11 A2983 RMK A01 T01770108  RH  066%=      5-min Rain = 0
KSVS 240620Z 16008KT 18/11 A2983 RMK A01 T01790107  RH  065%=      5-min Rain = 0
KSVS 240625Z 15008KT 18/11 A2984 RMK A01 T01800106  RH  064%=      5-min Rain = 0
KSVS 240630Z 14007KT 18/11 A2984 RMK A01 T01790105  RH  064%=      5-min Rain = 0
KSVS 240635Z 14009KT 18/11 A2984 RMK A01 T01790105  RH  064%=      5-min Rain = 0
KSVS 240640Z 14009KT 18/11 A2984 RMK A01 T01800105  RH  064%=      5-min Rain = 0
KSVS 240645Z 15008KT 18/10 A2984 RMK A01 T01790104  RH  064%=      5-min Rain = 0
KSVS 240650Z 14008KT 18/10 A2984 RMK A01 T01780103  RH  063%=      5-min Rain = 0
KSVS 240655Z 15010KT 18/10 A2984 RMK A01 T01820100  RH  061%=      5-min Rain = 0
KSVS 240700Z 15011KT 19/10 A2984 RMK A01 T01860098  RH  058%=      5-min Rain = 0
KSVS 240705Z 16011KT 19/10 A2985 RMK A01 T01860097  RH  058%=      5-min Rain = 0
KSVS 240710Z 17010KT 19/10 A2985 RMK A01 T01850097  RH  058%=      5-min Rain = 0
KSVS 240715Z 17010KT 18/10 A2985 RMK A01 T01820098  RH  060%=      5-min Rain = 0
KSVS 240720Z 16011KT 18/10 A2985 RMK A01 T01820099  RH  060%=      5-min Rain = 0
KSVS 240725Z 16010KT 18/10 A2985 RMK A01 T01820099  RH  060%=      5-min Rain = 0
KSVS 240730Z 17010KT 18/10 A2985 RMK A01 T01810099  RH  061%=      5-min Rain = 0
KSVS 240735Z 16011KT 18/10 A2985 RMK A01 T01830099  RH  060%=      5-min Rain = 0
KSVS 240740Z 16010KT 18/10 A2985 RMK A01 T01820099  RH  060%=      5-min Rain = 0
KSVS 240745Z 16010KT 18/10 A2985 RMK A01 T01820099  RH  060%=      5-min Rain = 0
KSVS 240750Z 16011KT 18/10 A2985 RMK A01 T01820099  RH  060%=      5-min Rain = 0
KSVS 240755Z 16010KT 18/10 A2985 RMK A01 T01810100  RH  061%=      5-min Rain = 0
KSVS 240800Z 16012KT 18/10 A2985 RMK A01 T01810099  RH  061%=      5-min Rain = 0
KSVS 240805Z 16009KT 18/10 A2985 RMK A01 T01810099  RH  061%=      5-min Rain = 0
KSVS 240810Z 15009KT 18/10 A2985 RMK A01 T01770100  RH  063%=      5-min Rain = 0
KSVS 240815Z 15009KT 18/10 A2985 RMK A01 T01750101  RH  064%=      5-min Rain = 0
KSVS 240820Z 16008KT 18/10 A2985 RMK A01 T01750102  RH  064%=      5-min Rain = 0
KSVS 240825Z 16007KT 17/10 A2985 RMK A01 T01730102  RH  065%=      5-min Rain = 0
KSVS 240830Z 16006KT 17/10 A2985 RMK A01 T01710102  RH  066%=      5-min Rain = 0
KSVS 240835Z 15007KT 17/10 A2985 RMK A01 T01690104  RH  068%=      5-min Rain = 0
KSVS 240840Z 15007KT 17/10 A2985 RMK A01 T01690103  RH  067%=      5-min Rain = 0
KSVS 240845Z 16007KT 17/10 A2985 RMK A01 T01700104  RH  067%=      5-min Rain = 0
KSVS 240850Z 15006KT 17/10 A2985 RMK A01 T01680104  RH  068%=      5-min Rain = 0
KSVS 240855Z 15007KT 17/10 A2985 RMK A01 T01670104  RH  069%=      5-min Rain = 0
KSVS 240900Z 14008KT 17/10 A2985 RMK A01 T01660104  RH  069%=      5-min Rain = 0
KSVS 240905Z 15007KT 16/10 A2985 RMK A01 T01640104  RH  070%=      5-min Rain = 0
KSVS 240910Z 15008KT 16/10 A2985 RMK A01 T01640104  RH  070%=      5-min Rain = 0
KSVS 240915Z 15007KT 17/10 A2985 RMK A01 T01660104  RH  069%=      5-min Rain = 0
KSVS 240920Z 15007KT 17/10 A2985 RMK A01 T01660104  RH  069%=      5-min Rain = 0
KSVS 240925Z 15008KT 17/10 A2985 RMK A01 T01670103  RH  068%=      5-min Rain = 0
KSVS 240930Z 15007KT 17/10 A2985 RMK A01 T01680103  RH  068%=      5-min Rain = 0
KSVS 240935Z 16007KT 17/10 A2985 RMK A01 T01670103  RH  068%=      5-min Rain = 0
KSVS 240940Z 16007KT 17/10 A2985 RMK A01 T01670103  RH  068%=      5-min Rain = 0
KSVS 240945Z 15007KT 17/10 A2985 RMK A01 T01670102  RH  068%=      5-min Rain = 0
KSVS 240950Z 17008KT 17/10 A2985 RMK A01 T01670103  RH  068%=      5-min Rain = 0
KSVS 240955Z 17009KT 17/10 A2984 RMK A01 T01690103  RH  067%=      5-min Rain = 0
KSVS 241000Z 17010KT 17/10 A2984 RMK A01 T01720103  RH  066%=      5-min Rain = 0
KSVS 241005Z 17009KT 17/10 A2984 RMK A01 T01700104  RH  067%=      5-min Rain = 0
KSVS 241010Z 17010KT 17/10 A2984 RMK A01 T01710103  RH  067%=      5-min Rain = 0
KSVS 241015Z 17011KT 17/10 A2984 RMK A01 T01700103  RH  067%=      5-min Rain = 0
KSVS 241020Z 17010KT 17/10 A2984 RMK A01 T01690103  RH  067%=      5-min Rain = 0
KSVS 241025Z 17010KT 17/10 A2984 RMK A01 T01670103  RH  068%=      5-min Rain = 0
KSVS 241030Z 17010KT 17/10 A2984 RMK A01 T01660104  RH  069%=      5-min Rain = 0
KSVS 241035Z 17010KT 16/10 A2984 RMK A01 T01640104  RH  070%=      5-min Rain = 0
KSVS 241040Z 18011KT 16/11 A2984 RMK A01 T01640105  RH  070%=      5-min Rain = 0
KSVS 241045Z 18011KT 16/10 A2985 RMK A01 T01620104  RH  071%=      5-min Rain = 0
KSVS 241050Z 18011KT 16/11 A2985 RMK A01 T01610105  RH  072%=      5-min Rain = 0
KSVS 241055Z 17012KT 16/11 A2985 RMK A01 T01610106  RH  072%=      5-min Rain = 0
KSVS 241100Z 17012KT 16/11 A2985 RMK A01 T01620107  RH  072%=      5-min Rain = 0
KSVS 241105Z 18012KT 16/11 A2985 RMK A01 T01600107  RH  073%=      5-min Rain = 0
KSVS 241110Z 17012KT 16/11 A2984 RMK A01 T01590107  RH  074%=      5-min Rain = 0
KSVS 241115Z 17012KT 16/11 A2984 RMK A01 T01570108  RH  075%=      5-min Rain = 0
KSVS 241120Z 18011KT 16/11 A2984 RMK A01 T01560109  RH  076%=      5-min Rain = 0
KSVS 241125Z 18010KT 15/11 A2984 RMK A01 T01540110  RH  077%=      5-min Rain = 0
KSVS 241130Z 18009KT 15/11 A2984 RMK A01 T01520110  RH  079%=      5-min Rain = 0
KSVS 241135Z 18009KT 15/11 A2984 RMK A01 T01490110  RH  080%=      5-min Rain = 0
KSVS 241140Z 18009KT 15/11 A2984 RMK A01 T01470110  RH  081%=      5-min Rain = 0
KSVS 241145Z 18008KT 15/11 A2984 RMK A01 T01450110  RH  082%=      5-min Rain = 0
KSVS 241150Z 18008KT 14/11 A2984 RMK A01 T01420109  RH  084%=      5-min Rain = 0
KSVS 241155Z 19008KT 14/11 A2984 RMK A01 T01420109  RH  083%=      5-min Rain = 0
KSVS 241200Z 19009KT 14/11 A2984 RMK A01 T01440109  RH  083%=      5-min Rain = 0
KSVS 241205Z 20008KT 14/11 A2984 RMK A01 T01410109  RH  084%=      5-min Rain = 0
KSVS 241210Z 20008KT 14/11 A2984 RMK A01 T01400110  RH  085%=      5-min Rain = 0
KSVS 241215Z 20009KT 14/11 A2985 RMK A01 T01420111  RH  084%=      5-min Rain = 0
KSVS 241220Z 19009KT 15/11 A2985 RMK A01 T01500112  RH  081%=      5-min Rain = 0
KSVS 241225Z 19010KT 16/11 A2985 RMK A01 T01560113  RH  078%=      5-min Rain = 0
KSVS 241230Z 19010KT 16/11 A2985 RMK A01 T01630114  RH  075%=      5-min Rain = 0
KSVS 241235Z 19010KT 17/12 A2985 RMK A01 T01670116  RH  074%=      5-min Rain = 0
KSVS 241240Z 19009KT 17/12 A2985 RMK A01 T01700116  RH  073%=      5-min Rain = 0
KSVS 241245Z 19009KT 17/12 A2985 RMK A01 T01730118  RH  073%=      5-min Rain = 0
KSVS 241250Z 18009KT 18/12 A2985 RMK A01 T01770118  RH  071%=      5-min Rain = 0
KSVS 241255Z 19010KT 18/12 A2985 RMK A01 T01770117  RH  070%=      5-min Rain = 0
KSVS 241300Z 19010G15KT 18/12 A2985 RMK A01 T01780117  RH  070%=      5-min Rain = 0
KSVS 241305Z 19012G17KT 18/12 A2985 RMK A01 T01830119  RH  069%=      5-min Rain = 0
KSVS 241310Z 19014G19KT 19/12 A2985 RMK A01 T01880118  RH  066%=      5-min Rain = 0
KSVS 241315Z 20014G21KT 19/12 A2985 RMK A01 T01910119  RH  065%=      5-min Rain = 0
KSVS 241320Z 20014G19KT 19/12 A2985 RMK A01 T01940120  RH  065%=      5-min Rain = 0
KSVS 241325Z 20015G21KT 20/12 A2984 RMK A01 T01950120  RH  064%=      5-min Rain = 0
KSVS 241330Z 19016KT 20/12 A2984 RMK A01 T01960121  RH  064%=      5-min Rain = 0
KSVS 241335Z 19014KT 20/12 A2984 RMK A01 T01980121  RH  063%=      5-min Rain = 0
KSVS 241340Z 19014KT 20/12 A2984 RMK A01 T02020123  RH  063%=      5-min Rain = 0
KSVS 241345Z 19014G23KT 20/12 A2984 RMK A01 T02040124  RH  062%=      5-min Rain = 0
KSVS 241350Z 19016G22KT 21/12 A2984 RMK A01 T02060122  RH  061%=      5-min Rain = 0
KSVS 241355Z 19017G26KT 21/12 A2984 RMK A01 T02070123  RH  061%=      5-min Rain = 0
KSVS 241400Z 19018G24KT 21/12 A2985 RMK A01 T02080123  RH  060%=      5-min Rain = 0
KSVS 241405Z 19019G25KT 21/12 A2985 RMK A01 T02090123  RH  060%=      5-min Rain = 0
KSVS 241410Z 18019G25KT 21/13 A2985 RMK A01 T02110125  RH  060%=      5-min Rain = 0
KSVS 241415Z 18018G24KT 21/13 A2985 RMK A01 T02130126  RH  060%=      5-min Rain = 0
KSVS 241420Z 19018G24KT 21/13 A2985 RMK A01 T02140127  RH  060%=      5-min Rain = 0
KSVS 241425Z 19016G22KT 22/13 A2984 RMK A01 T02190130  RH  059%=      5-min Rain = 0
KSVS 241430Z 19016G25KT 22/13 A2984 RMK A01 T02220131  RH  059%=      5-min Rain = 0
KSVS 241435Z 19018G25KT 22/13 A2984 RMK A01 T02220132  RH  059%=      5-min Rain = 0
KSVS 241440Z 20019G24KT 22/13 A2984 RMK A01 T02230132  RH  059%=      5-min Rain = 0
KSVS 241445Z 19020G27KT 22/13 A2984 RMK A01 T02230132  RH  059%=      5-min Rain = 0
KSVS 241450Z 20019G27KT 22/13 A2984 RMK A01 T02240133  RH  059%=      5-min Rain = 0
KSVS 241455Z 20020G26KT 22/13 A2984 RMK A01 T02240134  RH  059%=      5-min Rain = 0
KSVS 241500Z 19020G25KT 23/13 A2984 RMK A01 T02260134  RH  059%=      5-min Rain = 0
KSVS 241505Z 20018G27KT 23/14 A2984 RMK A01 T02290137  RH  058%=      5-min Rain = 0
KSVS 241510Z 21018G26KT 23/14 A2984 RMK A01 T02300138  RH  059%=      5-min Rain = 0
KSVS 241515Z 20019G25KT 23/14 A2983 RMK A01 T02320139  RH  058%=      5-min Rain = 0
KSVS 241520Z 19019G24KT 23/14 A2983 RMK A01 T02310137  RH  058%=      5-min Rain = 0
KSVS 241525Z 20018G25KT 23/14 A2983 RMK A01 T02330139  RH  058%=      5-min Rain = 0
KSVS 241530Z 20018G25KT 24/14 A2984 RMK A01 T02380142  RH  057%=      5-min Rain = 0
KSVS 241535Z 20021G26KT 24/14 A2983 RMK A01 T02370140  RH  057%=      5-min Rain = 0
KSVS 241540Z 21020G25KT 24/14 A2983 RMK A01 T02390142  RH  057%=      5-min Rain = 0
KSVS 241545Z 21018G26KT 24/15 A2983 RMK A01 T02430145  RH  057%=      5-min Rain = 0
KSVS 241550Z 20018G27KT 24/14 A2983 RMK A01 T02420144  RH  057%=      5-min Rain = 0
KSVS 241555Z 20017G24KT 24/15 A2983 RMK A01 T02430145  RH  057%=      5-min Rain = 0
KSVS 241600Z 20017G23KT 24/15 A2983 RMK A01 T02430146  RH  057%=      5-min Rain = 0
KSVS 241605Z 21017G23KT 25/15 A2983 RMK A01 T02450147  RH  057%=      5-min Rain = 0
KSVS 241610Z 21016G23KT 25/15 A2983 RMK A01 T02480149  RH  056%=      5-min Rain = 0
KSVS 241615Z 20015G24KT 25/15 A2983 RMK A01 T02490148  RH  056%=      5-min Rain = 0
KSVS 241620Z 20017G24KT 25/15 A2983 RMK A01 T02470149  RH  057%=      5-min Rain = 0
KSVS 241625Z 21016G21KT 25/15 A2983 RMK A01 T02480149  RH  056%=      5-min Rain = 0
KSVS 241630Z 22017G24KT 25/15 A2983 RMK A01 T02510149  RH  055%=      5-min Rain = 0
KSVS 241635Z 21015G20KT 25/15 A2983 RMK A01 T02520151  RH  056%=      5-min Rain = 0
KSVS 241640Z 21015G21KT 25/15 A2984 RMK A01 T02540153  RH  056%=      5-min Rain = 0
KSVS 241645Z 20015G22KT 25/15 A2984 RMK A01 T02510150  RH  056%=      5-min Rain = 0
KSVS 241650Z 21014G22KT 25/15 A2984 RMK A01 T02540152  RH  056%=      5-min Rain = 0
KSVS 241655Z 20015G20KT 25/15 A2984 RMK A01 T02540151  RH  055%=      5-min Rain = 0
KSVS 241700Z 21015G22KT 26/15 A2984 RMK A01 T02570152  RH  055%=      5-min Rain = 0
KSVS 241705Z 21014G20KT 26/15 A2984 RMK A01 T02590151  RH  054%=      5-min Rain = 0
KSVS 241710Z 20014G20KT 26/15 A2985 RMK A01 T02560152  RH  055%=      5-min Rain = 0
KSVS 241715Z 21014KT 26/15 A2985 RMK A01 T02580153  RH  055%=      5-min Rain = 0
KSVS 241720Z 20011G17KT 26/16 A2985 RMK A01 T02610156  RH  055%=      5-min Rain = 0
KSVS 241725Z 20012KT 27/16 A2985 RMK A01 T02650158  RH  055%=      5-min Rain = 0
KSVS 241730Z 19014G22KT 27/16 A2985 RMK A01 T02650156  RH  054%=      5-min Rain = 0
KSVS 241735Z 21012G19KT 27/16 A2985 RMK A01 T02680158  RH  053%=      5-min Rain = 0
KSVS 241740Z 21012G18KT 27/16 A2984 RMK A01 T02680155  RH  052%=      5-min Rain = 0
KSVS 241745Z 21012G18KT 27/16 A2984 RMK A01 T02660157  RH  054%=      5-min Rain = 0
KSVS 241750Z 20011KT 27/16 A2984 RMK A01 T02660155  RH  053%=      5-min Rain = 0
KSVS 241755Z 21012KT 27/16 A2984 RMK A01 T02690157  RH  053%=      5-min Rain = 0
KSVS 241800Z 20011KT 27/15 A2984 RMK A01 T02670154  RH  052%=      5-min Rain = 0
KSVS 241805Z 21011G17KT 27/16 A2984 RMK A01 T02710155  RH  051%=      5-min Rain = 0
KSVS 241810Z 20011KT 27/16 A2983 RMK A01 T02720158  RH  052%=      5-min Rain = 0
KSVS 241815Z 20011G17KT 27/16 A2983 RMK A01 T02700158  RH  053%=      5-min Rain = 0
KSVS 241820Z 21009G16KT 27/16 A2983 RMK A01 T02740159  RH  052%=      5-min Rain = 0
KSVS 241825Z 20010KT 28/16 A2983 RMK A01 T02780159  RH  051%=      5-min Rain = 0
KSVS 241830Z 21009G18KT 28/16 A2983 RMK A01 T02760155  RH  050%=      5-min Rain = 0
KSVS 241835Z 19011KT 28/16 A2983 RMK A01 T02770156  RH  050%=      5-min Rain = 0
KSVS 241840Z 21009G15KT 28/16 A2983 RMK A01 T02770156  RH  050%=      5-min Rain = 0
KSVS 241845Z 20010KT 28/15 A2983 RMK A01 T02790154  RH  049%=      5-min Rain = 0
KSVS 241850Z 21010G15KT 28/16 A2982 RMK A01 T02820155  RH  048%=      5-min Rain = 0
KSVS 241855Z 19009KT 28/15 A2982 RMK A01 T02810152  RH  048%=      5-min Rain = 0
KSVS 241900Z 18012G27KT 28/16 A2982 RMK A01 T02820157  RH  049%=      5-min Rain = 0
KSVS 241905Z 18012KT 28/16 A2982 RMK A01 T02830157  RH  049%=      5-min Rain = 0
KSVS 241910Z 18012KT 28/16 A2982 RMK A01 T02810155  RH  049%=      5-min Rain = 0
KSVS 241915Z 19012G20KT 29/16 A2982 RMK A01 T02860155  RH  047%=      5-min Rain = 0
KSVS 241920Z 18010KT 29/16 A2982 RMK A01 T02860156  RH  047%=      5-min Rain = 0
KSVS 241925Z 19011G18KT 29/16 A2981 RMK A01 T02880158  RH  047%=      5-min Rain = 0
KSVS 241930Z 17010G15KT 29/15 A2981 RMK A01 T02870154  RH  046%=      5-min Rain = 0
KSVS 241935Z 18012G17KT 29/16 A2981 RMK A01 T02900155  RH  046%=      5-min Rain = 0
KSVS 241940Z 18012G17KT 29/15 A298 RMK A01 T02900152  RH  045%=      5-min Rain = 0
KSVS 241945Z 18010G17KT 29/15 A298 RMK A01 T02880151  RH  045%=      5-min Rain = 0
KSVS 241950Z 20011KT 29/15 A298 RMK A01 T02890151  RH  045%=      5-min Rain = 0
KSVS 241955Z 17010KT 29/15 A298 RMK A01 T02920147  RH  043%=      5-min Rain = 0
KSVS 242000Z 19010KT 29/14 A298 RMK A01 T02910144  RH  043%=      5-min Rain = 0
KSVS 242005Z 20010G17KT 30/15 A2979 RMK A01 T02950146  RH  042%=      5-min Rain = 0
KSVS 242010Z 20010KT 29/14 A2979 RMK A01 T02930140  RH  041%=      5-min Rain = 0
KSVS 242015Z 18011G17KT 30/14 A2979 RMK A01 T02980140  RH  040%=      5-min Rain = 0
KSVS 242020Z 17010G16KT 30/14 A2979 RMK A01 T03010135  RH  038%=      5-min Rain = 0
KSVS 242025Z 17009G15KT 30/14 A2978 RMK A01 T03010139  RH  039%=      5-min Rain = 0
KSVS 242030Z 19009G15KT 30/14 A2978 RMK A01 T03000138  RH  039%=      5-min Rain = 0
KSVS 242035Z 18009G14KT 30/14 A2978 RMK A01 T03000141  RH  040%=      5-min Rain = 0
KSVS 242040Z 19010KT 30/14 A2978 RMK A01 T03010144  RH  040%=      5-min Rain = 0
KSVS 242045Z 18007G13KT 30/14 A2977 RMK A01 T03030139  RH  038%=      5-min Rain = 0
KSVS 242050Z 17010G18KT 30/15 A2977 RMK A01 T03040148  RH  041%=      5-min Rain = 0
KSVS 242055Z 16010G15KT 30/15 A2977 RMK A01 T03040145  RH  040%=      5-min Rain = 0
KSVS 242100Z 17010G19KT 30/14 A2976 RMK A01 T03030142  RH  039%=      5-min Rain = 0
KSVS 242105Z 16009G15KT 30/14 A2976 RMK A01 T03040136  RH  037%=      5-min Rain = 0
KSVS 242110Z 17011G17KT 30/14 A2976 RMK A01 T03030135  RH  037%=      5-min Rain = 0
KSVS 242115Z 17011KT 30/14 A2976 RMK A01 T03030135  RH  037%=      5-min Rain = 0
KSVS 242120Z 18007KT 31/14 A2975 RMK A01 T03050141  RH  038%=      5-min Rain = 0
KSVS 242125Z 18010G15KT 30/14 A2975 RMK A01 T03040135  RH  037%=      5-min Rain = 0
KSVS 242130Z 18008KT 31/13 A2975 RMK A01 T03050134  RH  036%=      5-min Rain = 0
KSVS 242135Z 17009G16KT 31/14 A2975 RMK A01 T03080136  RH  037%=      5-min Rain = 0
KSVS 242140Z 17011KT 31/14 A2974 RMK A01 T03090141  RH  038%=      5-min Rain = 0
KSVS 242145Z 17010KT 31/14 A2974 RMK A01 T03070144  RH  039%=      5-min Rain = 0
KSVS 242150Z 18011KT 31/14 A2973 RMK A01 T03070141  RH  038%=      5-min Rain = 0
KSVS 242155Z 15009G19KT 31/14 A2973 RMK A01 T03080143  RH  038%=      5-min Rain = 0
KSVS 242200Z 15012G17KT 31/15 A2973 RMK A01 T03050147  RH  040%=      5-min Rain = 0
KSVS 242205Z 14008G13KT 30/15 A2972 RMK A01 T03030146  RH  040%=      5-min Rain = 0
KSVS 242210Z 15008KT 30/14 A2972 RMK A01 T03040144  RH  039%=      5-min Rain = 0
KSVS 242215Z 16009KT 31/14 A2972 RMK A01 T03060140  RH  038%=      5-min Rain = 0
KSVS 242220Z 16006G11KT 31/14 A2972 RMK A01 T03080137  RH  037%=      5-min Rain = 0
KSVS 242225Z 16008KT 31/14 A2972 RMK A01 T03070141  RH  038%=      5-min Rain = 0
KSVS 242230Z 16011KT 31/14 A2971 RMK A01 T03080143  RH  038%=      5-min Rain = 0
KSVS 242235Z 16010KT 31/14 A2971 RMK A01 T03060140  RH  038%=      5-min Rain = 0
KSVS 242240Z 15010G15KT 31/14 A2971 RMK A01 T03090137  RH  037%=      5-min Rain = 0
KSVS 242245Z 17008KT 31/13 A297 RMK A01 T03070128  RH  035%=      5-min Rain = 0
KSVS 242250Z 15007KT 31/13 A297 RMK A01 T03060131  RH  036%=      5-min Rain = 0
KSVS 242255Z 15007G12KT 31/13 A297 RMK A01 T03080133  RH  036%=      5-min Rain = 0
KSVS 242300Z 15010KT 31/14 A297 RMK A01 T03090141  RH  038%=      5-min Rain = 0
KSVS 242305Z 14011KT 31/14 A297 RMK A01 T03080137  RH  037%=      5-min Rain = 0
KSVS 242310Z 12010KT 30/14 A2969 RMK A01 T03000143  RH  040%=      5-min Rain = 0
KSVS 242315Z 13010G15KT 30/15 A2969 RMK A01 T02950146  RH  042%=      5-min Rain = 0
KSVS 242320Z 16011KT 29/14 A2969 RMK A01 T02890142  RH  042%=      5-min Rain = 0
KSVS 242325Z 14011KT 29/15 A2969 RMK A01 T02850146  RH  045%=      5-min Rain = 0
KSVS 242330Z 15012KT 28/15 A2969 RMK A01 T02830146  RH  045%=      5-min Rain = 0
KSVS 242335Z 14013G18KT 28/15 A2968 RMK A01 T02820146  RH  045%=      5-min Rain = 0
KSVS 242340Z 13012G18KT 28/15 A2969 RMK A01 T02820146  RH  045%=      5-min Rain = 0
KSVS 242345Z 14013G20KT 28/15 A2969 RMK A01 T02810146  RH  045%=      5-min Rain = 0
KSVS 242350Z 14014G19KT 28/15 A2969 RMK A01 T02810146  RH  046%=      5-min Rain = 0
KSVS 242355Z 15013G18KT 28/15 A2969 RMK A01 T02790147  RH  047%=      5-min Rain = 0
KSVS 250000Z 14012G17KT 28/15 A2969 RMK A01 T02780148  RH  047%=      5-min Rain = 0
KSVS 250005Z 14012KT 28/15 A2968 RMK A01 T02760147  RH  047%=      5-min Rain = 0
KSVS 250010Z 15013KT 28/15 A2968 RMK A01 T02750145  RH  047%=      5-min Rain = 0
KSVS 250015Z 15013G18KT 28/14 A2968 RMK A01 T02750143  RH  046%=      5-min Rain = 0
KSVS 250020Z 14012KT 28/14 A2968 RMK A01 T02750142  RH  046%=      5-min Rain = 0
KSVS 250025Z 14011KT 27/14 A2968 RMK A01 T02730143  RH  047%=      5-min Rain = 0
KSVS 250030Z 13010KT 27/15 A2969 RMK A01 T02710147  RH  049%=      5-min Rain = 0
KSVS 250035Z 13011KT 27/15 A2968 RMK A01 T02690152  RH  051%=      5-min Rain = 0
KSVS 250040Z 14012G17KT 27/15 A2968 RMK A01 T02680154  RH  052%=      5-min Rain = 0
KSVS 250045Z 14012KT 27/15 A2967 RMK A01 T02670154  RH  052%=      5-min Rain = 0
KSVS 250050Z 15010KT 27/16 A2967 RMK A01 T02660155  RH  053%=      5-min Rain = 0
KSVS 250055Z 23017G28KT 26/11 A2969 RMK A01 T02570112  RH  043%=      5-min Rain = 0
KSVS 250100Z 24015G25KT 23/06 A2969 RMK A01 T02340064  RH  034%=      5-min Rain = 0
KSVS 250105Z 22024G34KT 20/10 A297 RMK A01 T01990100  RH  056%=      5-min Rain = 0.02
KSVS 250110Z 23026G37KT 15/12 A2971 RMK A01 T01530122  RH  085%=      5-min Rain = 0.13
KSVS 250115Z 23019G26KT 15/12 A2972 RMK A01 T01500117  RH  083%=      5-min Rain = 0.1
KSVS 250120Z 24016G21KT 16/11 A2972 RMK A01 T01600114  RH  077%=      5-min Rain = 0.05
KSVS 250125Z 24015G20KT 16/11 A2971 RMK A01 T01640114  RH  075%=      5-min Rain = 0.03
KSVS 250130Z 25013KT 17/11 A2971 RMK A01 T01670114  RH  074%=      5-min Rain = 0.02
KSVS 250135Z 23012G19KT 17/11 A2971 RMK A01 T01700114  RH  072%=      5-min Rain = 0.01
KSVS 250140Z 23014G19KT 18/11 A2971 RMK A01 T01770110  RH  067%=      5-min Rain = 0
KSVS 250145Z 22017G23KT 18/11 A2972 RMK A01 T01810110  RH  065%=      5-min Rain = 0
KSVS 250150Z 23020G26KT 18/11 A2973 RMK A01 T01830108  RH  064%=      5-min Rain = 0
KSVS 250155Z 23023G31KT 20/09 A2973 RMK A01 T01980094  RH  053%=      5-min Rain = 0
KSVS 250200Z 24016G29KT 20/09 A2974 RMK A01 T02020089  RH  050%=      5-min Rain = 0.01
KSVS 250205Z 21009KT 20/10 A2974 RMK A01 T01980097  RH  054%=      5-min Rain = 0.01
KSVS 250210Z 21015G28KT 20/10 A2975 RMK A01 T01970095  RH  053%=      5-min Rain = 0
KSVS 250215Z 21016G26KT 19/10 A2977 RMK A01 T01920100  RH  057%=      5-min Rain = 0.01
KSVS 250220Z 18010KT 18/11 A2977 RMK A01 T01830107  RH  063%=      5-min Rain = 0
KSVS 250225Z 18011KT 18/11 A2978 RMK A01 T01800109  RH  065%=      5-min Rain = 0.01
KSVS 250230Z 15011KT 17/12 A2977 RMK A01 T01720116  RH  072%=      5-min Rain = 0.02
KSVS 250235Z 17010KT 17/11 A2977 RMK A01 T01710112  RH  071%=      5-min Rain = 0.01
KSVS 250240Z 11012KT 18/11 A2975 RMK A01 T01780111  RH  067%=      5-min Rain = 0.01
KSVS 250245Z 10010KT 18/11 A2975 RMK A01 T01790110  RH  066%=      5-min Rain = 0
KSVS 250250Z 08021G29KT 18/11 A2971 RMK A01 T01820109  RH  065%=      5-min Rain = 0
KSVS 250255Z 07019G25KT 18/10 A297 RMK A01 T01840104  RH  062%=      5-min Rain = 0
KSVS 250300Z 07019G25KT 19/10 A2969 RMK A01 T01900102  RH  059%=      5-min Rain = 0
KSVS 250305Z 07019G26KT 18/11 A297 RMK A01 T01750113  RH  070%=      5-min Rain = 0
KSVS 250310Z 05016G21KT 17/12 A2971 RMK A01 T01700120  RH  075%=      5-min Rain = 0
KSVS 250315Z 06018G24KT 17/12 A297 RMK A01 T01710119  RH  074%=      5-min Rain = 0
KSVS 250320Z 07019KT 18/11 A297 RMK A01 T01790111  RH  067%=      5-min Rain = 0
KSVS 250325Z 07015G20KT 18/11 A2971 RMK A01 T01770112  RH  068%=      5-min Rain = 0
KSVS 250330Z 07013G19KT 18/11 A2972 RMK A01 T01820108  RH  064%=      5-min Rain = 0
KSVS 250335Z 08013KT 18/11 A2971 RMK A01 T01810109  RH  065%=      5-min Rain = 0
KSVS 250340Z 13016G23KT 18/11 A2974 RMK A01 T01800110  RH  066%=      5-min Rain = 0
KSVS 250345Z 13022G30KT 17/12 A2974 RMK A01 T01680123  RH  078%=      5-min Rain = 0
KSVS 250350Z 12018G24KT 16/13 A2974 RMK A01 T01620128  RH  083%=      5-min Rain = 0
KSVS 250355Z 13024G31KT 16/13 A2975 RMK A01 T01600130  RH  086%=      5-min Rain = 0
KSVS 250400Z 13026G32KT 16/13 A2975 RMK A01 T01600128  RH  085%=      5-min Rain = 0
KSVS 250405Z 12024G33KT 16/13 A2975 RMK A01 T01570129  RH  087%=      5-min Rain = 0
KSVS 250410Z 12028G37KT 15/13 A2972 RMK A01 T01520130  RH  090%=      5-min Rain = 0
KSVS 250415Z 12026G32KT 15/13 A297 RMK A01 T01520128  RH  089%=      5-min Rain = 0
KSVS 250420Z 10024G33KT 15/13 A297 RMK A01 T01530127  RH  088%=      5-min Rain = 0
KSVS 250425Z 10028G35KT 15/13 A2969 RMK A01 T01510129  RH  090%=      5-min Rain = 0
KSVS 250430Z 10027G41KT 15/13 A2968 RMK A01 T01530127  RH  088%=      5-min Rain = 0
KSVS 250435Z 10021G30KT 15/13 A2969 RMK A01 T01520127  RH  089%=      5-min Rain = 0
KSVS 250440Z 10021G31KT 16/12 A297 RMK A01 T01560123  RH  084%=      5-min Rain = 0
KSVS 250445Z 11020G28KT 16/12 A297 RMK A01 T01610117  RH  078%=      5-min Rain = 0
KSVS 250450Z 12015G21KT 16/12 A2972 RMK A01 T01610117  RH  078%=      5-min Rain = 0
KSVS 250455Z 12018G23KT 16/12 A2973 RMK A01 T01600117  RH  078%=      5-min Rain = 0

Page generated in 0.0169 seconds.